sensor_id;sensor_type;location;lat;lon;timestamp;temperature;humidity
16313;DHT22;8265;52.622;13.296;2023-07-13T00:02:24;15.20;78.10
16313;DHT22;8265;52.622;13.296;2023-07-13T00:07:45;15.20;77.70
16313;DHT22;8265;52.622;13.296;2023-07-13T00:13:06;15.30;77.30
16313;DHT22;8265;52.622;13.296;2023-07-13T00:18:27;15.20;77.70
16313;DHT22;8265;52.622;13.296;2023-07-13T00:23:48;15.10;78.90
16313;DHT22;8265;52.622;13.296;2023-07-13T00:29:09;15.00;79.30
16313;DHT22;8265;52.622;13.296;2023-07-13T00:34:30;15.00;79.80
16313;DHT22;8265;52.622;13.296;2023-07-13T00:39:51;14.80;79.90
16313;DHT22;8265;52.622;13.296;2023-07-13T00:50:33;14.50;81.20
16313;DHT22;8265;52.622;13.296;2023-07-13T00:55:54;14.40;81.30
16313;DHT22;8265;52.622;13.296;2023-07-13T01:01:15;14.20;82.00
16313;DHT22;8265;52.622;13.296;2023-07-13T01:06:36;14.00;83.00
16313;DHT22;8265;52.622;13.296;2023-07-13T01:11:57;14.00;83.30
16313;DHT22;8265;52.622;13.296;2023-07-13T01:17:18;14.00;83.30
16313;DHT22;8265;52.622;13.296;2023-07-13T01:22:39;14.00;83.60
16313;DHT22;8265;52.622;13.296;2023-07-13T01:28:00;14.00;83.20
16313;DHT22;8265;52.622;13.296;2023-07-13T01:33:21;14.00;83.40
16313;DHT22;8265;52.622;13.296;2023-07-13T01:38:42;14.00;83.30
16313;DHT22;8265;52.622;13.296;2023-07-13T01:44:03;13.90;83.60
16313;DHT22;8265;52.622;13.296;2023-07-13T01:49:24;13.70;84.60
16313;DHT22;8265;52.622;13.296;2023-07-13T01:54:45;13.60;84.50
16313;DHT22;8265;52.622;13.296;2023-07-13T02:00:08;13.70;84.60
16313;DHT22;8265;52.622;13.296;2023-07-13T02:05:27;13.70;84.20
16313;DHT22;8265;52.622;13.296;2023-07-13T02:10:48;13.60;84.40
16313;DHT22;8265;52.622;13.296;2023-07-13T02:16:09;13.50;85.20
16313;DHT22;8265;52.622;13.296;2023-07-13T02:21:30;13.50;85.30
16313;DHT22;8265;52.622;13.296;2023-07-13T02:26:51;13.40;85.10
16313;DHT22;8265;52.622;13.296;2023-07-13T02:32:12;13.40;85.70
16313;DHT22;8265;52.622;13.296;2023-07-13T02:37:33;13.40;86.00
16313;DHT22;8265;52.622;13.296;2023-07-13T02:42:54;13.40;85.70
16313;DHT22;8265;52.622;13.296;2023-07-13T02:48:15;13.60;85.50
16313;DHT22;8265;52.622;13.296;2023-07-13T02:53:36;13.70;84.90
16313;DHT22;8265;52.622;13.296;2023-07-13T02:58:57;14.00;83.50
16313;DHT22;8265;52.622;13.296;2023-07-13T03:04:18;14.20;82.80
16313;DHT22;8265;52.622;13.296;2023-07-13T03:09:39;14.00;83.30
16313;DHT22;8265;52.622;13.296;2023-07-13T03:15:00;13.90;83.80
16313;DHT22;8265;52.622;13.296;2023-07-13T03:20:21;13.70;84.80
16313;DHT22;8265;52.622;13.296;2023-07-13T03:25:42;13.50;85.30
16313;DHT22;8265;52.622;13.296;2023-07-13T03:31:04;13.50;85.70
16313;DHT22;8265;52.622;13.296;2023-07-13T03:36:25;13.30;85.60
16313;DHT22;8265;52.622;13.296;2023-07-13T03:41:45;13.30;86.60
16313;DHT22;8265;52.622;13.296;2023-07-13T03:47:06;13.30;86.40
16313;DHT22;8265;52.622;13.296;2023-07-13T03:52:27;13.30;86.40
16313;DHT22;8265;52.622;13.296;2023-07-13T03:57:52;13.30;86.40
16313;DHT22;8265;52.622;13.296;2023-07-13T04:03:09;13.50;85.40
16313;DHT22;8265;52.622;13.296;2023-07-13T04:08:32;13.90;84.10
16313;DHT22;8265;52.622;13.296;2023-07-13T04:13:51;14.00;83.40
16313;DHT22;8265;52.622;13.296;2023-07-13T04:19:12;14.10;83.60
16313;DHT22;8265;52.622;13.296;2023-07-13T04:24:33;14.20;83.20
16313;DHT22;8265;52.622;13.296;2023-07-13T04:29:54;14.20;83.80
16313;DHT22;8265;52.622;13.296;2023-07-13T04:35:15;14.30;83.70
16313;DHT22;8265;52.622;13.296;2023-07-13T04:40:36;14.60;83.00
16313;DHT22;8265;52.622;13.296;2023-07-13T04:45:57;14.90;82.10
16313;DHT22;8265;52.622;13.296;2023-07-13T04:51:18;15.30;80.30
16313;DHT22;8265;52.622;13.296;2023-07-13T04:56:39;15.60;79.50
16313;DHT22;8265;52.622;13.296;2023-07-13T05:02:00;15.70;78.50
16313;DHT22;8265;52.622;13.296;2023-07-13T05:07:21;15.90;77.80
16313;DHT22;8265;52.622;13.296;2023-07-13T05:12:42;16.00;77.00
16313;DHT22;8265;52.622;13.296;2023-07-13T05:18:03;16.20;76.90
16313;DHT22;8265;52.622;13.296;2023-07-13T05:23:24;16.30;76.70
16313;DHT22;8265;52.622;13.296;2023-07-13T05:28:45;16.40;75.70
16313;DHT22;8265;52.622;13.296;2023-07-13T05:34:06;16.70;75.50
16313;DHT22;8265;52.622;13.296;2023-07-13T05:39:27;16.80;74.80
16313;DHT22;8265;52.622;13.296;2023-07-13T05:44:48;17.10;73.80
16313;DHT22;8265;52.622;13.296;2023-07-13T05:50:09;17.20;73.50
16313;DHT22;8265;52.622;13.296;2023-07-13T05:55:30;17.40;73.90
16313;DHT22;8265;52.622;13.296;2023-07-13T06:00:58;17.50;72.10
16313;DHT22;8265;52.622;13.296;2023-07-13T06:06:12;17.70;71.30
16313;DHT22;8265;52.622;13.296;2023-07-13T06:11:33;17.90;70.70
16313;DHT22;8265;52.622;13.296;2023-07-13T06:16:54;18.10;70.10
16313;DHT22;8265;52.622;13.296;2023-07-13T06:22:15;18.10;69.40
16313;DHT22;8265;52.622;13.296;2023-07-13T06:27:36;18.30;70.00
16313;DHT22;8265;52.622;13.296;2023-07-13T06:32:57;18.50;68.50
16313;DHT22;8265;52.622;13.296;2023-07-13T06:38:18;18.70;68.20
16313;DHT22;8265;52.622;13.296;2023-07-13T06:43:38;18.90;67.00
16313;DHT22;8265;52.622;13.296;2023-07-13T06:48:59;19.20;67.40
16313;DHT22;8265;52.622;13.296;2023-07-13T06:54:20;19.40;64.70
16313;DHT22;8265;52.622;13.296;2023-07-13T06:59:41;19.90;64.50
16313;DHT22;8265;52.622;13.296;2023-07-13T07:05:02;20.10;62.40
16313;DHT22;8265;52.622;13.296;2023-07-13T07:10:23;19.80;62.90
16313;DHT22;8265;52.622;13.296;2023-07-13T07:15:44;19.70;64.40
16313;DHT22;8265;52.622;13.296;2023-07-13T07:21:05;19.70;63.80
16313;DHT22;8265;52.622;13.296;2023-07-13T07:26:27;20.00;64.80
16313;DHT22;8265;52.622;13.296;2023-07-13T07:31:47;20.00;64.00
16313;DHT22;8265;52.622;13.296;2023-07-13T07:37:12;20.20;62.80
16313;DHT22;8265;52.622;13.296;2023-07-13T07:42:29;20.50;62.00
16313;DHT22;8265;52.622;13.296;2023-07-13T07:47:50;20.70;60.00
16313;DHT22;8265;52.622;13.296;2023-07-13T07:53:11;20.90;60.00
16313;DHT22;8265;52.622;13.296;2023-07-13T07:58:32;21.20;59.70
16313;DHT22;8265;52.622;13.296;2023-07-13T08:03:53;21.20;59.30
16313;DHT22;8265;52.622;13.296;2023-07-13T08:09:14;21.30;59.40
16313;DHT22;8265;52.622;13.296;2023-07-13T08:14:35;21.60;57.80
16313;DHT22;8265;52.622;13.296;2023-07-13T08:19:56;21.80;56.90
16313;DHT22;8265;52.622;13.296;2023-07-13T08:25:17;21.60;57.60
16313;DHT22;8265;52.622;13.296;2023-07-13T08:30:38;21.80;57.80
16313;DHT22;8265;52.622;13.296;2023-07-13T08:35:59;21.90;52.60
16313;DHT22;8265;52.622;13.296;2023-07-13T08:41:20;22.10;51.30
16313;DHT22;8265;52.622;13.296;2023-07-13T08:46:41;21.80;51.80
16313;DHT22;8265;52.622;13.296;2023-07-13T08:52:08;21.50;52.00
16313;DHT22;8265;52.622;13.296;2023-07-13T08:57:24;21.40;51.50
16313;DHT22;8265;52.622;13.296;2023-07-13T09:02:57;21.70;51.80
16313;DHT22;8265;52.622;13.296;2023-07-13T09:08:19;21.90;52.10
16313;DHT22;8265;52.622;13.296;2023-07-13T09:18:48;22.10;52.40
16313;DHT22;8265;52.622;13.296;2023-07-13T09:24:28;22.30;52.60
16313;DHT22;8265;52.622;13.296;2023-07-13T09:29:30;23.00;50.60
16313;DHT22;8265;52.622;13.296;2023-07-13T09:34:51;23.60;49.60
16313;DHT22;8265;52.622;13.296;2023-07-13T09:40:23;24.20;48.10
16313;DHT22;8265;52.622;13.296;2023-07-13T09:45:32;24.40;48.60
16313;DHT22;8265;52.622;13.296;2023-07-13T09:50:56;23.60;49.10
16313;DHT22;8265;52.622;13.296;2023-07-13T09:56:21;23.30;48.80
16313;DHT22;8265;52.622;13.296;2023-07-13T10:01:36;23.00;49.50
16313;DHT22;8265;52.622;13.296;2023-07-13T10:07:06;22.60;50.30
16313;DHT22;8265;52.622;13.296;2023-07-13T10:12:17;22.30;51.20
16313;DHT22;8265;52.622;13.296;2023-07-13T10:17:38;22.40;51.80
16313;DHT22;8265;52.622;13.296;2023-07-13T10:23:02;22.50;50.80
16313;DHT22;8265;52.622;13.296;2023-07-13T10:28:24;22.90;50.80
16313;DHT22;8265;52.622;13.296;2023-07-13T10:33:41;23.00;49.10
16313;DHT22;8265;52.622;13.296;2023-07-13T10:39:03;22.60;50.80
16313;DHT22;8265;52.622;13.296;2023-07-13T10:44:24;22.40;50.50
16313;DHT22;8265;52.622;13.296;2023-07-13T10:49:44;23.00;48.40
16313;DHT22;8265;52.622;13.296;2023-07-13T10:55:05;23.60;48.30
16313;DHT22;8265;52.622;13.296;2023-07-13T11:00:26;24.00;46.00
16313;DHT22;8265;52.622;13.296;2023-07-13T11:05:51;24.00;47.10
16313;DHT22;8265;52.622;13.296;2023-07-13T11:27:18;24.30;43.80
16313;DHT22;8265;52.622;13.296;2023-07-13T11:32:32;24.80;44.30
16313;DHT22;8265;52.622;13.296;2023-07-13T11:37:53;25.10;44.10
16313;DHT22;8265;52.622;13.296;2023-07-13T11:43:14;25.60;43.60
16313;DHT22;8265;52.622;13.296;2023-07-13T11:48:35;25.30;41.50
16313;DHT22;8265;52.622;13.296;2023-07-13T11:53:56;24.80;43.20
16313;DHT22;8265;52.622;13.296;2023-07-13T11:59:17;25.50;44.10
16313;DHT22;8265;52.622;13.296;2023-07-13T12:04:38;25.60;42.80
16313;DHT22;8265;52.622;13.296;2023-07-13T12:10:02;24.90;44.70
16313;DHT22;8265;52.622;13.296;2023-07-13T12:15:20;24.60;44.50
16313;DHT22;8265;52.622;13.296;2023-07-13T12:20:40;25.00;45.40
16313;DHT22;8265;52.622;13.296;2023-07-13T12:26:02;25.30;43.90
16313;DHT22;8265;52.622;13.296;2023-07-13T12:31:30;25.80;43.50
16313;DHT22;8265;52.622;13.296;2023-07-13T12:36:54;26.10;41.40
16313;DHT22;8265;52.622;13.296;2023-07-13T12:42:21;26.80;42.00
16313;DHT22;8265;52.622;13.296;2023-07-13T12:47:26;26.00;41.10
16313;DHT22;8265;52.622;13.296;2023-07-13T12:52:53;26.00;41.30
16313;DHT22;8265;52.622;13.296;2023-07-13T12:58:09;26.20;41.60
16313;DHT22;8265;52.622;13.296;2023-07-13T13:03:35;26.10;40.10
16313;DHT22;8265;52.622;13.296;2023-07-13T13:08:51;25.80;40.40
16313;DHT22;8265;52.622;13.296;2023-07-13T13:14:10;26.20;41.20
16313;DHT22;8265;52.622;13.296;2023-07-13T13:19:31;26.20;41.30
16313;DHT22;8265;52.622;13.296;2023-07-13T13:24:52;26.10;41.30
16313;DHT22;8265;52.622;13.296;2023-07-13T13:30:14;25.60;41.60
16313;DHT22;8265;52.622;13.296;2023-07-13T13:35:34;25.80;40.70
16313;DHT22;8265;52.622;13.296;2023-07-13T13:40:55;25.80;41.00
16313;DHT22;8265;52.622;13.296;2023-07-13T13:46:23;26.40;41.00
16313;DHT22;8265;52.622;13.296;2023-07-13T13:51:37;26.40;40.70
16313;DHT22;8265;52.622;13.296;2023-07-13T13:56:58;26.40;41.10
16313;DHT22;8265;52.622;13.296;2023-07-13T14:02:26;26.20;41.60
16313;DHT22;8265;52.622;13.296;2023-07-13T14:07:40;25.70;41.10
16313;DHT22;8265;52.622;13.296;2023-07-13T14:13:01;25.90;42.50
16313;DHT22;8265;52.622;13.296;2023-07-13T14:18:22;27.00;40.00
16313;DHT22;8265;52.622;13.296;2023-07-13T14:23:44;27.90;38.70
16313;DHT22;8265;52.622;13.296;2023-07-13T14:29:05;27.20;39.70
16313;DHT22;8265;52.622;13.296;2023-07-13T14:34:25;27.10;40.40
16313;DHT22;8265;52.622;13.296;2023-07-13T14:39:46;28.00;39.30
16313;DHT22;8265;52.622;13.296;2023-07-13T14:45:12;27.70;39.80
16313;DHT22;8265;52.622;13.296;2023-07-13T14:50:31;28.20;38.20
16313;DHT22;8265;52.622;13.296;2023-07-13T14:55:49;28.10;37.70
16313;DHT22;8265;52.622;13.296;2023-07-13T15:01:13;27.90;36.80
16313;DHT22;8265;52.622;13.296;2023-07-13T15:06:50;27.50;39.40
16313;DHT22;8265;52.622;13.296;2023-07-13T15:11:54;28.10;38.50
16313;DHT22;8265;52.622;13.296;2023-07-13T15:17:36;28.30;37.20
16313;DHT22;8265;52.622;13.296;2023-07-13T15:22:34;28.00;36.90
16313;DHT22;8265;52.622;13.296;2023-07-13T15:27:56;26.80;38.70
16313;DHT22;8265;52.622;13.296;2023-07-13T15:33:19;27.70;38.90
16313;DHT22;8265;52.622;13.296;2023-07-13T15:38:37;27.10;38.60
16313;DHT22;8265;52.622;13.296;2023-07-13T15:43:58;26.60;39.20
16313;DHT22;8265;52.622;13.296;2023-07-13T15:49:19;26.40;40.90
16313;DHT22;8265;52.622;13.296;2023-07-13T15:54:40;27.70;37.90
16313;DHT22;8265;52.622;13.296;2023-07-13T16:00:02;27.00;38.50
16313;DHT22;8265;52.622;13.296;2023-07-13T16:05:23;25.50;40.60
16313;DHT22;8265;52.622;13.296;2023-07-13T16:10:43;25.50;40.80
16313;DHT22;8265;52.622;13.296;2023-07-13T16:16:08;27.30;40.30
16313;DHT22;8265;52.622;13.296;2023-07-13T16:21:29;27.70;37.60
16313;DHT22;8265;52.622;13.296;2023-07-13T16:26:47;27.00;38.70
16313;DHT22;8265;52.622;13.296;2023-07-13T16:32:13;27.00;39.70
16313;DHT22;8265;52.622;13.296;2023-07-13T16:37:28;25.80;41.10
16313;DHT22;8265;52.622;13.296;2023-07-13T16:42:53;24.70;42.30
16313;DHT22;8265;52.622;13.296;2023-07-13T16:48:12;24.30;43.30
16313;DHT22;8265;52.622;13.296;2023-07-13T16:53:31;23.90;44.00
16313;DHT22;8265;52.622;13.296;2023-07-13T16:58:52;23.60;48.90
16313;DHT22;8265;52.622;13.296;2023-07-13T17:04:15;21.80;54.60
16313;DHT22;8265;52.622;13.296;2023-07-13T17:09:34;20.30;59.20
16313;DHT22;8265;52.622;13.296;2023-07-13T17:14:55;19.80;61.30
16313;DHT22;8265;52.622;13.296;2023-07-13T17:20:21;19.30;62.00
16313;DHT22;8265;52.622;13.296;2023-07-13T17:25:37;18.90;64.30
16313;DHT22;8265;52.622;13.296;2023-07-13T17:30:59;18.60;66.40
16313;DHT22;8265;52.622;13.296;2023-07-13T17:36:19;18.00;70.20
16313;DHT22;8265;52.622;13.296;2023-07-13T17:41:40;17.10;78.90
16313;DHT22;8265;52.622;13.296;2023-07-13T17:47:01;16.50;83.10
16313;DHT22;8265;52.622;13.296;2023-07-13T17:52:22;16.10;85.20
16313;DHT22;8265;52.622;13.296;2023-07-13T17:57:43;16.00;86.90
16313;DHT22;8265;52.622;13.296;2023-07-13T18:03:05;15.60;89.40
16313;DHT22;8265;52.622;13.296;2023-07-13T18:08:27;15.70;90.00
16313;DHT22;8265;52.622;13.296;2023-07-13T18:13:46;15.50;89.70
16313;DHT22;8265;52.622;13.296;2023-07-13T18:19:16;15.60;91.40
16313;DHT22;8265;52.622;13.296;2023-07-13T18:24:28;15.80;90.00
16313;DHT22;8265;52.622;13.296;2023-07-13T18:29:49;15.90;90.40
16313;DHT22;8265;52.622;13.296;2023-07-13T18:35:21;16.00;90.50
16313;DHT22;8265;52.622;13.296;2023-07-13T18:40:31;16.00;90.90
16313;DHT22;8265;52.622;13.296;2023-07-13T18:45:56;16.00;89.80
16313;DHT22;8265;52.622;13.296;2023-07-13T18:51:13;16.00;90.50
16313;DHT22;8265;52.622;13.296;2023-07-13T18:56:34;16.00;90.20
16313;DHT22;8265;52.622;13.296;2023-07-13T19:01:55;16.00;90.40
16313;DHT22;8265;52.622;13.296;2023-07-13T19:07:16;15.80;91.20
16313;DHT22;8265;52.622;13.296;2023-07-13T19:12:37;15.60;91.40
16313;DHT22;8265;52.622;13.296;2023-07-13T19:17:58;15.50;92.30
16313;DHT22;8265;52.622;13.296;2023-07-13T19:23:26;15.40;92.60
16313;DHT22;8265;52.622;13.296;2023-07-13T19:28:40;15.20;92.80
16313;DHT22;8265;52.622;13.296;2023-07-13T19:39:25;15.00;93.40
16313;DHT22;8265;52.622;13.296;2023-07-13T19:44:43;14.90;93.30
16313;DHT22;8265;52.622;13.296;2023-07-13T19:50:04;14.80;92.80
16313;DHT22;8265;52.622;13.296;2023-07-13T19:55:25;14.60;93.10
16313;DHT22;8265;52.622;13.296;2023-07-13T20:00:46;14.60;94.30
16313;DHT22;8265;52.622;13.296;2023-07-13T20:11:28;14.40;94.60
16313;DHT22;8265;52.622;13.296;2023-07-13T20:16:49;14.40;94.70
16313;DHT22;8265;52.622;13.296;2023-07-13T20:22:10;14.40;94.90
16313;DHT22;8265;52.622;13.296;2023-07-13T20:27:31;14.30;94.70
16313;DHT22;8265;52.622;13.296;2023-07-13T20:32:52;14.20;94.90
16313;DHT22;8265;52.622;13.296;2023-07-13T20:38:14;14.10;95.20
16313;DHT22;8265;52.622;13.296;2023-07-13T20:43:34;14.00;95.10
16313;DHT22;8265;52.622;13.296;2023-07-13T20:48:55;14.00;95.10
16313;DHT22;8265;52.622;13.296;2023-07-13T20:54:16;13.90;95.40
16313;DHT22;8265;52.622;13.296;2023-07-13T20:59:36;13.90;95.50
16313;DHT22;8265;52.622;13.296;2023-07-13T21:05:09;13.90;95.30
16313;DHT22;8265;52.622;13.296;2023-07-13T21:10:26;13.80;95.30
16313;DHT22;8265;52.622;13.296;2023-07-13T21:15:40;13.70;95.30
16313;DHT22;8265;52.622;13.296;2023-07-13T21:21:00;13.70;95.40
16313;DHT22;8265;52.622;13.296;2023-07-13T21:26:21;13.70;95.20
16313;DHT22;8265;52.622;13.296;2023-07-13T21:31:42;13.80;95.70
16313;DHT22;8265;52.622;13.296;2023-07-13T21:37:04;13.80;95.00
16313;DHT22;8265;52.622;13.296;2023-07-13T21:42:24;13.90;95.10
16313;DHT22;8265;52.622;13.296;2023-07-13T21:47:45;14.00;95.40
16313;DHT22;8265;52.622;13.296;2023-07-13T21:53:21;14.00;95.40
16313;DHT22;8265;52.622;13.296;2023-07-13T21:58:30;14.10;95.30
16313;DHT22;8265;52.622;13.296;2023-07-13T22:03:54;14.10;95.30
16313;DHT22;8265;52.622;13.296;2023-07-13T22:09:16;14.00;94.50
16313;DHT22;8265;52.622;13.296;2023-07-13T22:14:30;13.90;94.60
16313;DHT22;8265;52.622;13.296;2023-07-13T22:19:51;13.90;94.60
16313;DHT22;8265;52.622;13.296;2023-07-13T22:25:12;14.00;94.50
16313;DHT22;8265;52.622;13.296;2023-07-13T22:30:33;14.00;93.70
16313;DHT22;8265;52.622;13.296;2023-07-13T22:35:54;14.00;92.90
16313;DHT22;8265;52.622;13.296;2023-07-13T22:41:16;14.00;93.70
16313;DHT22;8265;52.622;13.296;2023-07-13T22:46:36;14.00;94.30
16313;DHT22;8265;52.622;13.296;2023-07-13T22:51:58;13.80;94.20
16313;DHT22;8265;52.622;13.296;2023-07-13T22:57:18;13.70;94.00
16313;DHT22;8265;52.622;13.296;2023-07-13T23:02:39;13.70;94.10
16313;DHT22;8265;52.622;13.296;2023-07-13T23:08:00;13.60;94.10
16313;DHT22;8265;52.622;13.296;2023-07-13T23:13:21;13.60;93.80
16313;DHT22;8265;52.622;13.296;2023-07-13T23:18:42;13.60;93.70
16313;DHT22;8265;52.622;13.296;2023-07-13T23:24:04;13.50;93.50
16313;DHT22;8265;52.622;13.296;2023-07-13T23:29:24;13.50;93.30
16313;DHT22;8265;52.622;13.296;2023-07-13T23:34:45;13.50;93.10
16313;DHT22;8265;52.622;13.296;2023-07-13T23:40:22;13.50;92.80
16313;DHT22;8265;52.622;13.296;2023-07-13T23:45:27;13.50;91.90
16313;DHT22;8265;52.622;13.296;2023-07-13T23:50:48;13.50;91.60
16313;DHT22;8265;52.622;13.296;2023-07-13T23:56:19;13.50;91.30
